sensor_id;sensor_type;location;lat;lon;timestamp;temperature;humidity
25128;DHT22;13107;51.304;6.866;2023-05-07T00:03:00;13.30;99.90
25128;DHT22;13107;51.304;6.866;2023-05-07T00:07:03;13.30;99.90
25128;DHT22;13107;51.304;6.866;2023-05-07T00:11:05;13.20;99.90
25128;DHT22;13107;51.304;6.866;2023-05-07T00:15:07;13.20;99.90
25128;DHT22;13107;51.304;6.866;2023-05-07T00:19:09;13.20;99.90
25128;DHT22;13107;51.304;6.866;2023-05-07T00:23:11;13.20;99.90
25128;DHT22;13107;51.304;6.866;2023-05-07T00:27:13;13.20;99.90
25128;DHT22;13107;51.304;6.866;2023-05-07T00:31:14;13.10;99.90
25128;DHT22;13107;51.304;6.866;2023-05-07T00:35:16;13.10;99.90
25128;DHT22;13107;51.304;6.866;2023-05-07T00:39:18;13.10;99.90
25128;DHT22;13107;51.304;6.866;2023-05-07T00:43:19;13.00;99.90
25128;DHT22;13107;51.304;6.866;2023-05-07T00:47:22;13.00;99.90
25128;DHT22;13107;51.304;6.866;2023-05-07T00:51:24;13.00;99.90
25128;DHT22;13107;51.304;6.866;2023-05-07T00:55:26;12.90;99.90
25128;DHT22;13107;51.304;6.866;2023-05-07T00:59:28;12.80;99.90
25128;DHT22;13107;51.304;6.866;2023-05-07T01:03:30;12.70;99.90
25128;DHT22;13107;51.304;6.866;2023-05-07T01:07:33;12.60;99.90
25128;DHT22;13107;51.304;6.866;2023-05-07T01:11:35;12.50;99.90
25128;DHT22;13107;51.304;6.866;2023-05-07T01:15:37;12.50;99.90
25128;DHT22;13107;51.304;6.866;2023-05-07T01:19:39;12.40;99.90
25128;DHT22;13107;51.304;6.866;2023-05-07T01:23:41;12.40;99.90
25128;DHT22;13107;51.304;6.866;2023-05-07T01:27:43;12.50;99.90
25128;DHT22;13107;51.304;6.866;2023-05-07T01:31:44;12.40;99.90
25128;DHT22;13107;51.304;6.866;2023-05-07T01:35:50;12.40;99.90
25128;DHT22;13107;51.304;6.866;2023-05-07T01:39:53;12.40;99.90
25128;DHT22;13107;51.304;6.866;2023-05-07T01:43:55;12.40;99.90
25128;DHT22;13107;51.304;6.866;2023-05-07T01:47:58;12.30;99.90
25128;DHT22;13107;51.304;6.866;2023-05-07T01:52:01;12.30;99.90
25128;DHT22;13107;51.304;6.866;2023-05-07T01:56:03;12.30;99.90
25128;DHT22;13107;51.304;6.866;2023-05-07T02:00:05;12.30;99.90
25128;DHT22;13107;51.304;6.866;2023-05-07T02:04:07;12.20;99.90
25128;DHT22;13107;51.304;6.866;2023-05-07T02:08:09;12.20;99.90
25128;DHT22;13107;51.304;6.866;2023-05-07T02:12:11;12.20;99.90
25128;DHT22;13107;51.304;6.866;2023-05-07T02:16:13;12.20;99.90
25128;DHT22;13107;51.304;6.866;2023-05-07T02:20:16;12.10;99.90
25128;DHT22;13107;51.304;6.866;2023-05-07T02:24:17;12.10;99.90
25128;DHT22;13107;51.304;6.866;2023-05-07T02:28:19;12.10;99.90
25128;DHT22;13107;51.304;6.866;2023-05-07T02:32:21;12.00;99.90
25128;DHT22;13107;51.304;6.866;2023-05-07T02:36:24;11.90;99.90
25128;DHT22;13107;51.304;6.866;2023-05-07T02:40:26;11.90;99.90
25128;DHT22;13107;51.304;6.866;2023-05-07T02:44:27;11.80;99.90
25128;DHT22;13107;51.304;6.866;2023-05-07T02:48:33;11.80;99.90
25128;DHT22;13107;51.304;6.866;2023-05-07T02:52:35;11.70;99.90
25128;DHT22;13107;51.304;6.866;2023-05-07T02:56:36;11.70;99.90
25128;DHT22;13107;51.304;6.866;2023-05-07T03:00:38;11.70;99.90
25128;DHT22;13107;51.304;6.866;2023-05-07T03:04:39;11.60;99.90
25128;DHT22;13107;51.304;6.866;2023-05-07T03:08:41;11.50;99.90
25128;DHT22;13107;51.304;6.866;2023-05-07T03:12:43;11.40;99.90
25128;DHT22;13107;51.304;6.866;2023-05-07T03:16:45;11.40;99.90
25128;DHT22;13107;51.304;6.866;2023-05-07T03:20:48;11.40;99.90
25128;DHT22;13107;51.304;6.866;2023-05-07T03:24:50;11.30;99.90
25128;DHT22;13107;51.304;6.866;2023-05-07T03:28:52;11.30;99.90
25128;DHT22;13107;51.304;6.866;2023-05-07T03:32:54;11.30;99.90
25128;DHT22;13107;51.304;6.866;2023-05-07T03:36:55;11.30;99.90
25128;DHT22;13107;51.304;6.866;2023-05-07T03:40:57;11.30;99.90
25128;DHT22;13107;51.304;6.866;2023-05-07T03:44:59;11.20;99.90
25128;DHT22;13107;51.304;6.866;2023-05-07T03:49:01;11.20;99.90
25128;DHT22;13107;51.304;6.866;2023-05-07T03:53:02;11.20;99.90
25128;DHT22;13107;51.304;6.866;2023-05-07T03:57:04;11.20;99.90
25128;DHT22;13107;51.304;6.866;2023-05-07T04:01:06;11.20;99.90
25128;DHT22;13107;51.304;6.866;2023-05-07T04:05:08;11.20;99.90
25128;DHT22;13107;51.304;6.866;2023-05-07T04:09:10;11.20;99.90
25128;DHT22;13107;51.304;6.866;2023-05-07T04:13:12;11.30;99.90
25128;DHT22;13107;51.304;6.866;2023-05-07T04:17:14;11.30;99.90
25128;DHT22;13107;51.304;6.866;2023-05-07T04:21:20;11.30;99.90
25128;DHT22;13107;51.304;6.866;2023-05-07T04:25:22;11.30;99.90
25128;DHT22;13107;51.304;6.866;2023-05-07T04:29:28;11.30;99.90
25128;DHT22;13107;51.304;6.866;2023-05-07T04:33:30;11.40;99.90
25128;DHT22;13107;51.304;6.866;2023-05-07T04:37:32;11.50;99.90
25128;DHT22;13107;51.304;6.866;2023-05-07T04:41:36;11.50;99.90
25128;DHT22;13107;51.304;6.866;2023-05-07T04:45:37;11.50;99.90
25128;DHT22;13107;51.304;6.866;2023-05-07T04:49:42;11.60;99.90
25128;DHT22;13107;51.304;6.866;2023-05-07T04:53:43;11.70;99.90
25128;DHT22;13107;51.304;6.866;2023-05-07T04:57:45;11.80;99.90
25128;DHT22;13107;51.304;6.866;2023-05-07T05:01:47;11.80;99.90
25128;DHT22;13107;51.304;6.866;2023-05-07T05:05:52;11.90;99.90
25128;DHT22;13107;51.304;6.866;2023-05-07T05:09:54;11.90;99.90
25128;DHT22;13107;51.304;6.866;2023-05-07T05:13:57;12.00;99.90
25128;DHT22;13107;51.304;6.866;2023-05-07T05:17:58;12.10;99.90
25128;DHT22;13107;51.304;6.866;2023-05-07T05:22:00;12.20;99.90
25128;DHT22;13107;51.304;6.866;2023-05-07T05:26:02;12.30;99.90
25128;DHT22;13107;51.304;6.866;2023-05-07T05:30:04;12.40;99.90
25128;DHT22;13107;51.304;6.866;2023-05-07T05:34:07;12.50;99.90
25128;DHT22;13107;51.304;6.866;2023-05-07T05:38:08;12.60;99.90
25128;DHT22;13107;51.304;6.866;2023-05-07T05:42:10;12.80;99.90
25128;DHT22;13107;51.304;6.866;2023-05-07T05:46:12;12.90;99.90
25128;DHT22;13107;51.304;6.866;2023-05-07T05:50:14;13.10;99.90
25128;DHT22;13107;51.304;6.866;2023-05-07T05:54:17;13.30;99.90
25128;DHT22;13107;51.304;6.866;2023-05-07T05:58:18;13.50;99.90
25128;DHT22;13107;51.304;6.866;2023-05-07T06:02:20;13.70;99.90
25128;DHT22;13107;51.304;6.866;2023-05-07T06:06:22;13.90;99.90
25128;DHT22;13107;51.304;6.866;2023-05-07T06:10:24;13.90;99.90
25128;DHT22;13107;51.304;6.866;2023-05-07T06:14:25;14.10;99.90
25128;DHT22;13107;51.304;6.866;2023-05-07T06:18:27;14.30;99.90
25128;DHT22;13107;51.304;6.866;2023-05-07T06:22:29;14.50;99.90
25128;DHT22;13107;51.304;6.866;2023-05-07T06:26:31;14.80;99.90
25128;DHT22;13107;51.304;6.866;2023-05-07T06:30:32;15.10;99.90
25128;DHT22;13107;51.304;6.866;2023-05-07T06:34:34;15.30;99.90
25128;DHT22;13107;51.304;6.866;2023-05-07T06:38:36;15.40;99.90
25128;DHT22;13107;51.304;6.866;2023-05-07T06:42:37;15.50;99.90
25128;DHT22;13107;51.304;6.866;2023-05-07T06:46:39;15.60;99.90
25128;DHT22;13107;51.304;6.866;2023-05-07T06:50:41;15.80;99.90
25128;DHT22;13107;51.304;6.866;2023-05-07T06:54:43;15.90;99.90
25128;DHT22;13107;51.304;6.866;2023-05-07T06:58:45;16.00;99.90
25128;DHT22;13107;51.304;6.866;2023-05-07T07:02:46;16.20;99.90
25128;DHT22;13107;51.304;6.866;2023-05-07T07:06:48;16.30;99.90
25128;DHT22;13107;51.304;6.866;2023-05-07T07:10:50;16.40;99.90
25128;DHT22;13107;51.304;6.866;2023-05-07T07:14:52;16.20;99.90
25128;DHT22;13107;51.304;6.866;2023-05-07T07:18:55;16.30;99.90
25128;DHT22;13107;51.304;6.866;2023-05-07T07:22:57;16.60;99.90
25128;DHT22;13107;51.304;6.866;2023-05-07T07:26:59;17.20;99.90
25128;DHT22;13107;51.304;6.866;2023-05-07T07:31:00;17.30;99.90
25128;DHT22;13107;51.304;6.866;2023-05-07T07:35:02;17.30;99.90
25128;DHT22;13107;51.304;6.866;2023-05-07T07:39:04;17.70;99.90
25128;DHT22;13107;51.304;6.866;2023-05-07T07:43:05;18.00;99.90
25128;DHT22;13107;51.304;6.866;2023-05-07T07:47:08;18.10;99.90
25128;DHT22;13107;51.304;6.866;2023-05-07T07:51:10;18.30;99.90
25128;DHT22;13107;51.304;6.866;2023-05-07T07:55:12;18.30;99.90
25128;DHT22;13107;51.304;6.866;2023-05-07T07:59:13;18.50;99.90
25128;DHT22;13107;51.304;6.866;2023-05-07T08:03:19;18.50;99.90
25128;DHT22;13107;51.304;6.866;2023-05-07T08:07:21;18.80;99.90
25128;DHT22;13107;51.304;6.866;2023-05-07T08:11:24;18.90;99.90
25128;DHT22;13107;51.304;6.866;2023-05-07T08:15:26;19.00;99.90
25128;DHT22;13107;51.304;6.866;2023-05-07T08:19:28;19.20;99.90
25128;DHT22;13107;51.304;6.866;2023-05-07T08:23:30;19.40;99.90
25128;DHT22;13107;51.304;6.866;2023-05-07T08:27:32;19.50;99.90
25128;DHT22;13107;51.304;6.866;2023-05-07T08:31:33;19.50;99.90
25128;DHT22;13107;51.304;6.866;2023-05-07T08:35:35;19.60;99.90
25128;DHT22;13107;51.304;6.866;2023-05-07T08:39:37;19.90;99.90
25128;DHT22;13107;51.304;6.866;2023-05-07T08:43:41;20.00;99.90
25128;DHT22;13107;51.304;6.866;2023-05-07T08:47:44;21.50;99.90
25128;DHT22;13107;51.304;6.866;2023-05-07T08:51:48;21.70;99.90
25128;DHT22;13107;51.304;6.866;2023-05-07T08:55:50;22.80;99.90
25128;DHT22;13107;51.304;6.866;2023-05-07T08:59:52;23.40;99.90
25128;DHT22;13107;51.304;6.866;2023-05-07T09:03:54;23.40;99.90
25128;DHT22;13107;51.304;6.866;2023-05-07T09:07:59;22.90;99.90
25128;DHT22;13107;51.304;6.866;2023-05-07T09:12:01;22.10;99.90
25128;DHT22;13107;51.304;6.866;2023-05-07T09:16:12;21.50;99.90
25128;DHT22;13107;51.304;6.866;2023-05-07T09:20:14;22.50;99.90
25128;DHT22;13107;51.304;6.866;2023-05-07T09:24:16;23.60;99.90
25128;DHT22;13107;51.304;6.866;2023-05-07T09:28:18;23.90;99.90
25128;DHT22;13107;51.304;6.866;2023-05-07T09:32:20;23.80;99.90
25128;DHT22;13107;51.304;6.866;2023-05-07T09:36:21;24.00;99.90
25128;DHT22;13107;51.304;6.866;2023-05-07T09:40:25;24.20;99.90
25128;DHT22;13107;51.304;6.866;2023-05-07T09:44:27;23.60;99.90
25128;DHT22;13107;51.304;6.866;2023-05-07T09:48:29;23.80;99.90
25128;DHT22;13107;51.304;6.866;2023-05-07T09:52:31;23.70;99.90
25128;DHT22;13107;51.304;6.866;2023-05-07T09:56:36;23.60;99.90
25128;DHT22;13107;51.304;6.866;2023-05-07T10:00:39;23.30;99.90
25128;DHT22;13107;51.304;6.866;2023-05-07T10:04:43;22.80;99.90
25128;DHT22;13107;51.304;6.866;2023-05-07T10:08:44;22.70;99.90
25128;DHT22;13107;51.304;6.866;2023-05-07T10:12:47;22.70;99.90
25128;DHT22;13107;51.304;6.866;2023-05-07T10:16:49;23.00;99.90
25128;DHT22;13107;51.304;6.866;2023-05-07T10:20:52;23.40;99.90
25128;DHT22;13107;51.304;6.866;2023-05-07T10:24:56;24.00;99.90
25128;DHT22;13107;51.304;6.866;2023-05-07T10:29:07;24.90;99.90
25128;DHT22;13107;51.304;6.866;2023-05-07T10:33:15;25.10;99.90
25128;DHT22;13107;51.304;6.866;2023-05-07T10:37:18;24.80;99.90
25128;DHT22;13107;51.304;6.866;2023-05-07T10:41:20;24.40;99.90
25128;DHT22;13107;51.304;6.866;2023-05-07T10:45:23;25.40;99.90
25128;DHT22;13107;51.304;6.866;2023-05-07T10:49:25;25.90;99.90
25128;DHT22;13107;51.304;6.866;2023-05-07T10:53:26;26.10;99.90
25128;DHT22;13107;51.304;6.866;2023-05-07T10:57:33;25.90;99.90
25128;DHT22;13107;51.304;6.866;2023-05-07T11:01:53;26.50;99.90
25128;DHT22;13107;51.304;6.866;2023-05-07T11:06:15;25.10;97.30
25128;DHT22;13107;51.304;6.866;2023-05-07T11:10:17;24.70;99.90
25128;DHT22;13107;51.304;6.866;2023-05-07T11:18:48;24.40;99.90
25128;DHT22;13107;51.304;6.866;2023-05-07T11:22:53;24.00;99.90
25128;DHT22;13107;51.304;6.866;2023-05-07T11:26:57;24.00;98.90
25128;DHT22;13107;51.304;6.866;2023-05-07T11:31:00;24.30;99.90
25128;DHT22;13107;51.304;6.866;2023-05-07T11:35:01;24.10;98.90
25128;DHT22;13107;51.304;6.866;2023-05-07T11:39:03;24.50;99.90
25128;DHT22;13107;51.304;6.866;2023-05-07T11:43:11;24.60;99.90
25128;DHT22;13107;51.304;6.866;2023-05-07T11:47:20;24.40;99.90
25128;DHT22;13107;51.304;6.866;2023-05-07T11:51:24;24.10;99.90
25128;DHT22;13107;51.304;6.866;2023-05-07T11:55:27;23.80;99.90
25128;DHT22;13107;51.304;6.866;2023-05-07T11:59:29;23.00;99.90
25128;DHT22;13107;51.304;6.866;2023-05-07T12:03:31;22.60;99.90
25128;DHT22;13107;51.304;6.866;2023-05-07T12:07:37;22.60;99.90
25128;DHT22;13107;51.304;6.866;2023-05-07T12:11:39;22.20;99.90
25128;DHT22;13107;51.304;6.866;2023-05-07T12:15:42;22.30;99.90
25128;DHT22;13107;51.304;6.866;2023-05-07T12:19:44;22.30;99.90
25128;DHT22;13107;51.304;6.866;2023-05-07T12:23:46;22.70;99.90
25128;DHT22;13107;51.304;6.866;2023-05-07T12:27:52;22.90;99.90
25128;DHT22;13107;51.304;6.866;2023-05-07T12:31:54;22.50;99.90
25128;DHT22;13107;51.304;6.866;2023-05-07T12:35:56;22.60;99.90
25128;DHT22;13107;51.304;6.866;2023-05-07T12:40:09;22.10;99.90
25128;DHT22;13107;51.304;6.866;2023-05-07T12:44:11;21.70;99.90
25128;DHT22;13107;51.304;6.866;2023-05-07T12:48:17;21.60;99.90
25128;DHT22;13107;51.304;6.866;2023-05-07T12:52:19;21.30;99.90
25128;DHT22;13107;51.304;6.866;2023-05-07T12:56:21;20.80;99.90
25128;DHT22;13107;51.304;6.866;2023-05-07T13:00:38;20.60;99.90
25128;DHT22;13107;51.304;6.866;2023-05-07T13:04:39;20.30;99.90
25128;DHT22;13107;51.304;6.866;2023-05-07T13:08:42;20.20;99.90
25128;DHT22;13107;51.304;6.866;2023-05-07T13:12:46;20.00;99.90
25128;DHT22;13107;51.304;6.866;2023-05-07T13:16:48;19.90;99.90
25128;DHT22;13107;51.304;6.866;2023-05-07T13:20:50;19.80;99.90
25128;DHT22;13107;51.304;6.866;2023-05-07T13:24:52;19.70;99.90
25128;DHT22;13107;51.304;6.866;2023-05-07T13:28:54;18.60;99.90
25128;DHT22;13107;51.304;6.866;2023-05-07T13:32:56;17.00;99.90
25128;DHT22;13107;51.304;6.866;2023-05-07T13:36:58;16.50;99.90
25128;DHT22;13107;51.304;6.866;2023-05-07T13:40:59;16.30;99.90
25128;DHT22;13107;51.304;6.866;2023-05-07T13:45:01;16.00;99.90
25128;DHT22;13107;51.304;6.866;2023-05-07T13:49:06;15.80;99.90
25128;DHT22;13107;51.304;6.866;2023-05-07T13:53:08;15.80;99.90
25128;DHT22;13107;51.304;6.866;2023-05-07T13:57:10;15.70;99.90
25128;DHT22;13107;51.304;6.866;2023-05-07T14:01:11;15.70;99.90
25128;DHT22;13107;51.304;6.866;2023-05-07T14:05:13;15.70;99.90
25128;DHT22;13107;51.304;6.866;2023-05-07T14:09:15;15.70;99.90
25128;DHT22;13107;51.304;6.866;2023-05-07T14:13:17;15.70;99.90
25128;DHT22;13107;51.304;6.866;2023-05-07T14:17:19;15.70;99.90
25128;DHT22;13107;51.304;6.866;2023-05-07T14:21:21;15.70;99.90
25128;DHT22;13107;51.304;6.866;2023-05-07T14:25:23;15.60;99.90
25128;DHT22;13107;51.304;6.866;2023-05-07T14:29:25;15.70;99.90
25128;DHT22;13107;51.304;6.866;2023-05-07T14:33:27;15.80;99.90
25128;DHT22;13107;51.304;6.866;2023-05-07T14:37:28;15.90;99.90
25128;DHT22;13107;51.304;6.866;2023-05-07T14:41:30;15.70;99.90
25128;DHT22;13107;51.304;6.866;2023-05-07T14:45:33;15.70;99.90
25128;DHT22;13107;51.304;6.866;2023-05-07T14:49:35;15.70;99.90
25128;DHT22;13107;51.304;6.866;2023-05-07T14:53:37;15.80;99.90
25128;DHT22;13107;51.304;6.866;2023-05-07T14:57:39;15.80;99.90
25128;DHT22;13107;51.304;6.866;2023-05-07T15:01:41;15.90;99.90
25128;DHT22;13107;51.304;6.866;2023-05-07T15:05:46;15.90;99.90
25128;DHT22;13107;51.304;6.866;2023-05-07T15:09:48;16.00;99.90
25128;DHT22;13107;51.304;6.866;2023-05-07T15:13:50;15.90;99.90
25128;DHT22;13107;51.304;6.866;2023-05-07T15:17:51;16.00;99.90
25128;DHT22;13107;51.304;6.866;2023-05-07T15:21:53;16.00;99.90
25128;DHT22;13107;51.304;6.866;2023-05-07T15:25:55;16.00;99.90
25128;DHT22;13107;51.304;6.866;2023-05-07T15:29:57;16.10;99.90
25128;DHT22;13107;51.304;6.866;2023-05-07T15:34:00;16.10;99.90
25128;DHT22;13107;51.304;6.866;2023-05-07T15:38:02;16.10;99.90
25128;DHT22;13107;51.304;6.866;2023-05-07T15:42:04;16.20;99.90
25128;DHT22;13107;51.304;6.866;2023-05-07T15:46:06;16.30;99.90
25128;DHT22;13107;51.304;6.866;2023-05-07T15:50:08;16.30;99.90
25128;DHT22;13107;51.304;6.866;2023-05-07T15:54:09;16.30;99.90
25128;DHT22;13107;51.304;6.866;2023-05-07T15:58:11;16.30;99.90
25128;DHT22;13107;51.304;6.866;2023-05-07T16:02:13;16.40;99.90
25128;DHT22;13107;51.304;6.866;2023-05-07T16:06:15;16.20;99.90
25128;DHT22;13107;51.304;6.866;2023-05-07T16:10:17;16.20;99.90
25128;DHT22;13107;51.304;6.866;2023-05-07T16:14:19;16.10;99.90
25128;DHT22;13107;51.304;6.866;2023-05-07T16:18:20;16.10;99.90
25128;DHT22;13107;51.304;6.866;2023-05-07T16:22:22;16.10;99.90
25128;DHT22;13107;51.304;6.866;2023-05-07T16:26:26;16.10;99.90
25128;DHT22;13107;51.304;6.866;2023-05-07T16:30:27;16.00;99.90
25128;DHT22;13107;51.304;6.866;2023-05-07T16:34:29;16.10;99.90
25128;DHT22;13107;51.304;6.866;2023-05-07T16:38:33;16.20;99.90
25128;DHT22;13107;51.304;6.866;2023-05-07T16:42:35;16.10;99.90
25128;DHT22;13107;51.304;6.866;2023-05-07T16:46:37;16.20;99.90
25128;DHT22;13107;51.304;6.866;2023-05-07T16:50:39;16.20;99.90
25128;DHT22;13107;51.304;6.866;2023-05-07T16:54:41;16.40;99.90
25128;DHT22;13107;51.304;6.866;2023-05-07T16:58:43;16.50;99.90
25128;DHT22;13107;51.304;6.866;2023-05-07T17:02:45;16.50;99.90
25128;DHT22;13107;51.304;6.866;2023-05-07T17:06:47;16.60;99.90
25128;DHT22;13107;51.304;6.866;2023-05-07T17:10:49;16.70;99.90
25128;DHT22;13107;51.304;6.866;2023-05-07T17:14:50;16.80;99.90
25128;DHT22;13107;51.304;6.866;2023-05-07T17:18:52;16.80;99.90
25128;DHT22;13107;51.304;6.866;2023-05-07T17:22:54;16.80;99.90
25128;DHT22;13107;51.304;6.866;2023-05-07T17:26:56;16.80;99.90
25128;DHT22;13107;51.304;6.866;2023-05-07T17:30:57;16.80;99.90
25128;DHT22;13107;51.304;6.866;2023-05-07T17:35:00;16.80;99.90
25128;DHT22;13107;51.304;6.866;2023-05-07T17:39:02;16.80;99.90
25128;DHT22;13107;51.304;6.866;2023-05-07T17:43:04;16.80;99.90
25128;DHT22;13107;51.304;6.866;2023-05-07T17:47:06;16.80;99.90
25128;DHT22;13107;51.304;6.866;2023-05-07T17:51:09;16.80;99.90
25128;DHT22;13107;51.304;6.866;2023-05-07T17:55:10;16.70;99.90
25128;DHT22;13107;51.304;6.866;2023-05-07T17:59:12;16.70;99.90
25128;DHT22;13107;51.304;6.866;2023-05-07T18:03:14;16.70;99.90
25128;DHT22;13107;51.304;6.866;2023-05-07T18:07:16;16.60;99.90
25128;DHT22;13107;51.304;6.866;2023-05-07T18:11:18;16.60;99.90
25128;DHT22;13107;51.304;6.866;2023-05-07T18:15:20;16.50;99.90
25128;DHT22;13107;51.304;6.866;2023-05-07T18:19:22;16.40;99.90
25128;DHT22;13107;51.304;6.866;2023-05-07T18:23:24;16.40;99.90
25128;DHT22;13107;51.304;6.866;2023-05-07T18:27:25;16.30;99.90
25128;DHT22;13107;51.304;6.866;2023-05-07T18:31:27;16.30;99.90
25128;DHT22;13107;51.304;6.866;2023-05-07T18:35:30;16.30;99.90
25128;DHT22;13107;51.304;6.866;2023-05-07T18:39:32;16.20;99.90
25128;DHT22;13107;51.304;6.866;2023-05-07T18:43:35;16.10;99.90
25128;DHT22;13107;51.304;6.866;2023-05-07T18:47:37;16.10;99.90
25128;DHT22;13107;51.304;6.866;2023-05-07T18:51:38;16.00;99.90
25128;DHT22;13107;51.304;6.866;2023-05-07T18:55:40;15.90;99.90
25128;DHT22;13107;51.304;6.866;2023-05-07T18:59:42;15.90;99.90
25128;DHT22;13107;51.304;6.866;2023-05-07T19:03:44;15.90;99.90
25128;DHT22;13107;51.304;6.866;2023-05-07T19:07:45;15.90;99.90
25128;DHT22;13107;51.304;6.866;2023-05-07T19:11:51;15.80;99.90
25128;DHT22;13107;51.304;6.866;2023-05-07T19:15:53;15.70;99.90
25128;DHT22;13107;51.304;6.866;2023-05-07T19:19:55;15.70;99.90
25128;DHT22;13107;51.304;6.866;2023-05-07T19:23:57;15.60;99.90
25128;DHT22;13107;51.304;6.866;2023-05-07T19:27:58;15.60;99.90
25128;DHT22;13107;51.304;6.866;2023-05-07T19:32:01;15.60;99.90
25128;DHT22;13107;51.304;6.866;2023-05-07T19:36:03;15.50;99.90
25128;DHT22;13107;51.304;6.866;2023-05-07T19:40:05;15.50;99.90
25128;DHT22;13107;51.304;6.866;2023-05-07T19:44:07;15.40;99.90
25128;DHT22;13107;51.304;6.866;2023-05-07T19:48:09;15.40;99.90
25128;DHT22;13107;51.304;6.866;2023-05-07T19:52:11;15.40;99.90
25128;DHT22;13107;51.304;6.866;2023-05-07T19:56:13;15.30;99.90
25128;DHT22;13107;51.304;6.866;2023-05-07T20:00:15;15.20;99.90
25128;DHT22;13107;51.304;6.866;2023-05-07T20:04:17;15.20;99.90
25128;DHT22;13107;51.304;6.866;2023-05-07T20:08:19;15.10;99.90
25128;DHT22;13107;51.304;6.866;2023-05-07T20:12:21;15.10;99.90
25128;DHT22;13107;51.304;6.866;2023-05-07T20:16:23;15.10;99.90
25128;DHT22;13107;51.304;6.866;2023-05-07T20:20:25;15.10;99.90
25128;DHT22;13107;51.304;6.866;2023-05-07T20:24:26;15.00;99.90
25128;DHT22;13107;51.304;6.866;2023-05-07T20:28:28;15.00;99.90
25128;DHT22;13107;51.304;6.866;2023-05-07T20:32:30;15.00;99.90
25128;DHT22;13107;51.304;6.866;2023-05-07T20:36:31;15.00;99.90
25128;DHT22;13107;51.304;6.866;2023-05-07T20:40:34;14.90;99.90
25128;DHT22;13107;51.304;6.866;2023-05-07T20:44:38;14.90;99.90
25128;DHT22;13107;51.304;6.866;2023-05-07T20:48:39;14.90;99.90
25128;DHT22;13107;51.304;6.866;2023-05-07T20:52:41;14.80;99.90
25128;DHT22;13107;51.304;6.866;2023-05-07T20:56:43;14.90;99.90
25128;DHT22;13107;51.304;6.866;2023-05-07T21:00:44;14.70;99.90
25128;DHT22;13107;51.304;6.866;2023-05-07T21:04:46;14.80;99.90
25128;DHT22;13107;51.304;6.866;2023-05-07T21:08:52;14.70;99.90
25128;DHT22;13107;51.304;6.866;2023-05-07T21:12:53;14.70;99.90
25128;DHT22;13107;51.304;6.866;2023-05-07T21:16:55;14.70;99.90
25128;DHT22;13107;51.304;6.866;2023-05-07T21:20:57;14.70;99.90
25128;DHT22;13107;51.304;6.866;2023-05-07T21:24:59;14.60;99.90
25128;DHT22;13107;51.304;6.866;2023-05-07T21:29:01;14.60;99.90
25128;DHT22;13107;51.304;6.866;2023-05-07T21:33:03;14.60;99.90
25128;DHT22;13107;51.304;6.866;2023-05-07T21:37:08;14.50;99.90
25128;DHT22;13107;51.304;6.866;2023-05-07T21:41:11;14.50;99.90
25128;DHT22;13107;51.304;6.866;2023-05-07T21:45:12;14.50;99.90
25128;DHT22;13107;51.304;6.866;2023-05-07T21:49:14;14.40;99.90
25128;DHT22;13107;51.304;6.866;2023-05-07T21:53:16;14.50;99.90
25128;DHT22;13107;51.304;6.866;2023-05-07T21:57:18;14.30;99.90
25128;DHT22;13107;51.304;6.866;2023-05-07T22:01:20;14.30;99.90
25128;DHT22;13107;51.304;6.866;2023-05-07T22:05:22;14.30;99.90
25128;DHT22;13107;51.304;6.866;2023-05-07T22:09:23;14.20;99.90
25128;DHT22;13107;51.304;6.866;2023-05-07T22:13:25;14.20;99.90
25128;DHT22;13107;51.304;6.866;2023-05-07T22:17:27;14.10;99.90
25128;DHT22;13107;51.304;6.866;2023-05-07T22:21:29;14.10;99.90
25128;DHT22;13107;51.304;6.866;2023-05-07T22:25:32;14.10;99.90
25128;DHT22;13107;51.304;6.866;2023-05-07T22:29:37;14.10;99.90
25128;DHT22;13107;51.304;6.866;2023-05-07T22:33:39;14.10;99.90
25128;DHT22;13107;51.304;6.866;2023-05-07T22:37:41;14.10;99.90
25128;DHT22;13107;51.304;6.866;2023-05-07T22:41:42;14.10;99.90
25128;DHT22;13107;51.304;6.866;2023-05-07T22:45:44;14.10;99.90
25128;DHT22;13107;51.304;6.866;2023-05-07T22:49:46;14.10;99.90
25128;DHT22;13107;51.304;6.866;2023-05-07T22:53:47;14.10;99.90
25128;DHT22;13107;51.304;6.866;2023-05-07T22:57:49;14.00;99.90
25128;DHT22;13107;51.304;6.866;2023-05-07T23:01:51;14.00;99.90
25128;DHT22;13107;51.304;6.866;2023-05-07T23:05:53;14.00;99.90
25128;DHT22;13107;51.304;6.866;2023-05-07T23:09:54;14.00;99.90
25128;DHT22;13107;51.304;6.866;2023-05-07T23:13:56;14.00;99.90
25128;DHT22;13107;51.304;6.866;2023-05-07T23:17:58;13.90;99.90
25128;DHT22;13107;51.304;6.866;2023-05-07T23:22:00;13.90;99.90
25128;DHT22;13107;51.304;6.866;2023-05-07T23:26:01;13.90;99.90
25128;DHT22;13107;51.304;6.866;2023-05-07T23:30:04;13.80;99.90
25128;DHT22;13107;51.304;6.866;2023-05-07T23:34:05;13.80;99.90
25128;DHT22;13107;51.304;6.866;2023-05-07T23:38:07;13.80;99.90
25128;DHT22;13107;51.304;6.866;2023-05-07T23:42:09;13.70;99.90
25128;DHT22;13107;51.304;6.866;2023-05-07T23:46:11;13.70;99.90
25128;DHT22;13107;51.304;6.866;2023-05-07T23:50:13;13.70;99.90
25128;DHT22;13107;51.304;6.866;2023-05-07T23:54:15;13.70;99.90
25128;DHT22;13107;51.304;6.866;2023-05-07T23:58:16;13.60;99.90
